sensor_id;sensor_type;location;lat;lon;timestamp;P1;durP1;ratioP1;P2;durP2;ratioP2
14766;SDS011;7475;53.558;9.970;2022-09-28T00:01:13;6.70;;;5.15;;
14766;SDS011;7475;53.558;9.970;2022-09-28T00:03:39;8.43;;;5.20;;
14766;SDS011;7475;53.558;9.970;2022-09-28T00:06:05;7.30;;;5.22;;
14766;SDS011;7475;53.558;9.970;2022-09-28T00:08:31;5.57;;;4.97;;
14766;SDS011;7475;53.558;9.970;2022-09-28T00:10:57;12.13;;;5.38;;
14766;SDS011;7475;53.558;9.970;2022-09-28T00:13:22;6.22;;;5.30;;
14766;SDS011;7475;53.558;9.970;2022-09-28T00:15:57;5.75;;;4.97;;
14766;SDS011;7475;53.558;9.970;2022-09-28T00:18:22;6.68;;;5.55;;
14766;SDS011;7475;53.558;9.970;2022-09-28T00:20:48;10.02;;;5.70;;
14766;SDS011;7475;53.558;9.970;2022-09-28T00:23:22;6.22;;;5.10;;
14766;SDS011;7475;53.558;9.970;2022-09-28T00:25:48;7.82;;;5.20;;
14766;SDS011;7475;53.558;9.970;2022-09-28T00:28:13;6.97;;;5.25;;
14766;SDS011;7475;53.558;9.970;2022-09-28T00:30:38;6.80;;;5.27;;
14766;SDS011;7475;53.558;9.970;2022-09-28T00:33:03;6.57;;;5.18;;
14766;SDS011;7475;53.558;9.970;2022-09-28T00:35:29;6.38;;;5.72;;
14766;SDS011;7475;53.558;9.970;2022-09-28T00:37:54;6.95;;;5.18;;
14766;SDS011;7475;53.558;9.970;2022-09-28T00:40:20;10.47;;;5.67;;
14766;SDS011;7475;53.558;9.970;2022-09-28T00:42:45;7.70;;;5.60;;
14766;SDS011;7475;53.558;9.970;2022-09-28T00:45:10;6.57;;;5.43;;
14766;SDS011;7475;53.558;9.970;2022-09-28T00:47:40;8.07;;;5.47;;
14766;SDS011;7475;53.558;9.970;2022-09-28T00:50:14;8.23;;;6.00;;
14766;SDS011;7475;53.558;9.970;2022-09-28T00:52:43;8.60;;;6.13;;
14766;SDS011;7475;53.558;9.970;2022-09-28T00:55:14;7.65;;;5.88;;
14766;SDS011;7475;53.558;9.970;2022-09-28T00:57:41;6.70;;;5.55;;
14766;SDS011;7475;53.558;9.970;2022-09-28T01:00:08;8.13;;;5.70;;
14766;SDS011;7475;53.558;9.970;2022-09-28T01:02:34;8.35;;;6.07;;
14766;SDS011;7475;53.558;9.970;2022-09-28T01:04:59;9.35;;;6.32;;
14766;SDS011;7475;53.558;9.970;2022-09-28T01:07:25;7.60;;;6.07;;
14766;SDS011;7475;53.558;9.970;2022-09-28T01:09:50;8.15;;;6.57;;
14766;SDS011;7475;53.558;9.970;2022-09-28T01:12:17;8.38;;;6.70;;
14766;SDS011;7475;53.558;9.970;2022-09-28T01:14:43;9.07;;;6.40;;
14766;SDS011;7475;53.558;9.970;2022-09-28T01:17:21;9.05;;;7.03;;
14766;SDS011;7475;53.558;9.970;2022-09-28T01:24:48;7.28;;;5.80;;
14766;SDS011;7475;53.558;9.970;2022-09-28T01:32:22;7.63;;;5.85;;
14766;SDS011;7475;53.558;9.970;2022-09-28T01:37:40;7.63;;;5.78;;
14766;SDS011;7475;53.558;9.970;2022-09-28T01:40:08;6.43;;;5.68;;
14766;SDS011;7475;53.558;9.970;2022-09-28T01:42:35;8.43;;;5.07;;
14766;SDS011;7475;53.558;9.970;2022-09-28T01:45:04;6.15;;;5.20;;
14766;SDS011;7475;53.558;9.970;2022-09-28T01:47:30;8.02;;;5.72;;
14766;SDS011;7475;53.558;9.970;2022-09-28T01:49:59;8.13;;;6.35;;
14766;SDS011;7475;53.558;9.970;2022-09-28T01:52:32;8.43;;;6.47;;
14766;SDS011;7475;53.558;9.970;2022-09-28T01:55:44;7.45;;;6.10;;
14766;SDS011;7475;53.558;9.970;2022-09-28T02:00:15;8.57;;;6.25;;
14766;SDS011;7475;53.558;9.970;2022-09-28T02:02:43;7.38;;;5.93;;
14766;SDS011;7475;53.558;9.970;2022-09-28T02:05:11;9.07;;;5.90;;
14766;SDS011;7475;53.558;9.970;2022-09-28T02:07:43;6.15;;;5.55;;
14766;SDS011;7475;53.558;9.970;2022-09-28T02:10:12;7.90;;;6.57;;
14766;SDS011;7475;53.558;9.970;2022-09-28T02:12:44;9.07;;;6.72;;
14766;SDS011;7475;53.558;9.970;2022-09-28T02:15:22;10.32;;;7.75;;
14766;SDS011;7475;53.558;9.970;2022-09-28T02:17:49;7.97;;;6.80;;
14766;SDS011;7475;53.558;9.970;2022-09-28T02:20:15;8.40;;;6.82;;
14766;SDS011;7475;53.558;9.970;2022-09-28T02:22:45;7.45;;;6.75;;
14766;SDS011;7475;53.558;9.970;2022-09-28T02:27:56;9.10;;;6.40;;
14766;SDS011;7475;53.558;9.970;2022-09-28T02:30:23;10.45;;;7.85;;
14766;SDS011;7475;53.558;9.970;2022-09-28T02:32:48;8.02;;;6.68;;
14766;SDS011;7475;53.558;9.970;2022-09-28T02:35:16;9.27;;;6.50;;
14766;SDS011;7475;53.558;9.970;2022-09-28T02:37:41;8.02;;;6.50;;
14766;SDS011;7475;53.558;9.970;2022-09-28T02:40:23;8.98;;;6.47;;
14766;SDS011;7475;53.558;9.970;2022-09-28T02:43:09;12.88;;;6.93;;
14766;SDS011;7475;53.558;9.970;2022-09-28T02:45:38;9.25;;;6.72;;
14766;SDS011;7475;53.558;9.970;2022-09-28T02:51:00;8.75;;;6.72;;
14766;SDS011;7475;53.558;9.970;2022-09-28T02:56:24;7.85;;;6.57;;
14766;SDS011;7475;53.558;9.970;2022-09-28T03:04:12;9.10;;;6.95;;
14766;SDS011;7475;53.558;9.970;2022-09-28T03:09:32;9.55;;;7.40;;
14766;SDS011;7475;53.558;9.970;2022-09-28T03:11:59;8.70;;;6.75;;
14766;SDS011;7475;53.558;9.970;2022-09-28T03:14:27;8.50;;;7.40;;
14766;SDS011;7475;53.558;9.970;2022-09-28T03:16:52;8.05;;;7.13;;
14766;SDS011;7475;53.558;9.970;2022-09-28T03:19:18;9.02;;;6.88;;
14766;SDS011;7475;53.558;9.970;2022-09-28T03:21:45;8.35;;;7.43;;
14766;SDS011;7475;53.558;9.970;2022-09-28T03:24:11;10.38;;;8.15;;
14766;SDS011;7475;53.558;9.970;2022-09-28T03:26:37;8.68;;;7.53;;
14766;SDS011;7475;53.558;9.970;2022-09-28T03:29:05;9.15;;;7.50;;
14766;SDS011;7475;53.558;9.970;2022-09-28T03:31:30;8.15;;;7.25;;
14766;SDS011;7475;53.558;9.970;2022-09-28T03:33:55;10.48;;;7.88;;
14766;SDS011;7475;53.558;9.970;2022-09-28T03:36:21;12.13;;;8.15;;
14766;SDS011;7475;53.558;9.970;2022-09-28T03:38:46;10.23;;;7.45;;
14766;SDS011;7475;53.558;9.970;2022-09-28T03:41:11;8.27;;;7.47;;
14766;SDS011;7475;53.558;9.970;2022-09-28T03:43:36;10.20;;;7.97;;
14766;SDS011;7475;53.558;9.970;2022-09-28T03:46:02;9.05;;;7.85;;
14766;SDS011;7475;53.558;9.970;2022-09-28T03:48:29;9.48;;;7.88;;
14766;SDS011;7475;53.558;9.970;2022-09-28T03:50:55;9.70;;;7.95;;
14766;SDS011;7475;53.558;9.970;2022-09-28T03:53:21;10.77;;;7.93;;
14766;SDS011;7475;53.558;9.970;2022-09-28T03:55:46;11.43;;;8.30;;
14766;SDS011;7475;53.558;9.970;2022-09-28T03:58:11;10.13;;;9.13;;
14766;SDS011;7475;53.558;9.970;2022-09-28T04:00:37;9.80;;;8.40;;
14766;SDS011;7475;53.558;9.970;2022-09-28T04:03:02;11.38;;;8.68;;
14766;SDS011;7475;53.558;9.970;2022-09-28T04:05:28;10.15;;;8.25;;
14766;SDS011;7475;53.558;9.970;2022-09-28T04:07:53;10.43;;;8.63;;
14766;SDS011;7475;53.558;9.970;2022-09-28T04:10:20;11.75;;;9.38;;
14766;SDS011;7475;53.558;9.970;2022-09-28T04:12:45;10.48;;;9.35;;
14766;SDS011;7475;53.558;9.970;2022-09-28T04:15:10;11.00;;;9.10;;
14766;SDS011;7475;53.558;9.970;2022-09-28T04:17:35;10.90;;;9.80;;
14766;SDS011;7475;53.558;9.970;2022-09-28T04:20:01;12.85;;;10.18;;
14766;SDS011;7475;53.558;9.970;2022-09-28T04:22:27;13.25;;;10.15;;
14766;SDS011;7475;53.558;9.970;2022-09-28T04:24:52;13.27;;;10.43;;
14766;SDS011;7475;53.558;9.970;2022-09-28T04:27:17;12.30;;;10.98;;
14766;SDS011;7475;53.558;9.970;2022-09-28T04:30:01;14.23;;;11.57;;
14766;SDS011;7475;53.558;9.970;2022-09-28T04:32:27;14.27;;;11.93;;
14766;SDS011;7475;53.558;9.970;2022-09-28T04:34:52;12.45;;;11.05;;
14766;SDS011;7475;53.558;9.970;2022-09-28T04:37:17;16.23;;;13.50;;
14766;SDS011;7475;53.558;9.970;2022-09-28T04:39:42;18.75;;;12.73;;
14766;SDS011;7475;53.558;9.970;2022-09-28T04:42:08;15.20;;;12.23;;
14766;SDS011;7475;53.558;9.970;2022-09-28T04:44:34;15.82;;;13.05;;
14766;SDS011;7475;53.558;9.970;2022-09-28T04:46:59;16.98;;;12.82;;
14766;SDS011;7475;53.558;9.970;2022-09-28T04:49:24;17.67;;;13.35;;
14766;SDS011;7475;53.558;9.970;2022-09-28T04:51:49;18.83;;;14.18;;
14766;SDS011;7475;53.558;9.970;2022-09-28T04:54:15;17.27;;;13.65;;
14766;SDS011;7475;53.558;9.970;2022-09-28T04:56:40;19.23;;;13.38;;
14766;SDS011;7475;53.558;9.970;2022-09-28T04:59:05;19.55;;;14.15;;
14766;SDS011;7475;53.558;9.970;2022-09-28T05:01:31;19.85;;;13.35;;
14766;SDS011;7475;53.558;9.970;2022-09-28T05:03:56;20.50;;;14.40;;
14766;SDS011;7475;53.558;9.970;2022-09-28T05:06:21;19.88;;;13.32;;
14766;SDS011;7475;53.558;9.970;2022-09-28T05:08:46;21.95;;;14.60;;
14766;SDS011;7475;53.558;9.970;2022-09-28T05:11:12;45.25;;;15.10;;
14766;SDS011;7475;53.558;9.970;2022-09-28T05:13:39;20.13;;;14.45;;
14766;SDS011;7475;53.558;9.970;2022-09-28T05:16:06;18.83;;;14.25;;
14766;SDS011;7475;53.558;9.970;2022-09-28T05:18:31;22.83;;;14.60;;
14766;SDS011;7475;53.558;9.970;2022-09-28T05:20:56;18.23;;;14.32;;
14766;SDS011;7475;53.558;9.970;2022-09-28T05:23:21;17.40;;;14.73;;
14766;SDS011;7475;53.558;9.970;2022-09-28T05:25:47;22.80;;;15.93;;
14766;SDS011;7475;53.558;9.970;2022-09-28T05:28:12;20.73;;;15.13;;
14766;SDS011;7475;53.558;9.970;2022-09-28T05:30:37;25.05;;;15.68;;
14766;SDS011;7475;53.558;9.970;2022-09-28T05:33:03;26.10;;;15.90;;
14766;SDS011;7475;53.558;9.970;2022-09-28T05:35:28;24.38;;;16.08;;
14766;SDS011;7475;53.558;9.970;2022-09-28T05:37:54;29.77;;;16.63;;
14766;SDS011;7475;53.558;9.970;2022-09-28T05:40:19;25.85;;;16.92;;
14766;SDS011;7475;53.558;9.970;2022-09-28T05:42:44;37.97;;;18.05;;
14766;SDS011;7475;53.558;9.970;2022-09-28T05:45:09;29.55;;;18.50;;
14766;SDS011;7475;53.558;9.970;2022-09-28T05:47:38;33.50;;;17.52;;
14766;SDS011;7475;53.558;9.970;2022-09-28T05:50:04;31.88;;;19.08;;
14766;SDS011;7475;53.558;9.970;2022-09-28T05:52:29;28.63;;;19.30;;
14766;SDS011;7475;53.558;9.970;2022-09-28T05:54:55;27.77;;;17.70;;
14766;SDS011;7475;53.558;9.970;2022-09-28T05:57:20;30.38;;;18.33;;
14766;SDS011;7475;53.558;9.970;2022-09-28T05:59:45;26.85;;;18.00;;
14766;SDS011;7475;53.558;9.970;2022-09-28T06:02:10;35.28;;;18.77;;
14766;SDS011;7475;53.558;9.970;2022-09-28T06:04:36;40.42;;;18.67;;
14766;SDS011;7475;53.558;9.970;2022-09-28T06:07:01;28.77;;;19.55;;
14766;SDS011;7475;53.558;9.970;2022-09-28T06:09:26;25.83;;;19.13;;
14766;SDS011;7475;53.558;9.970;2022-09-28T06:11:51;31.42;;;19.48;;
14766;SDS011;7475;53.558;9.970;2022-09-28T06:14:16;26.13;;;17.77;;
14766;SDS011;7475;53.558;9.970;2022-09-28T06:16:42;25.75;;;18.20;;
14766;SDS011;7475;53.558;9.970;2022-09-28T06:19:07;31.00;;;18.17;;
14766;SDS011;7475;53.558;9.970;2022-09-28T06:21:33;29.63;;;19.35;;
14766;SDS011;7475;53.558;9.970;2022-09-28T06:23:58;24.55;;;18.55;;
14766;SDS011;7475;53.558;9.970;2022-09-28T06:26:23;24.45;;;17.50;;
14766;SDS011;7475;53.558;9.970;2022-09-28T06:28:49;24.42;;;18.13;;
14766;SDS011;7475;53.558;9.970;2022-09-28T06:31:14;21.83;;;16.73;;
14766;SDS011;7475;53.558;9.970;2022-09-28T06:33:39;25.65;;;18.10;;
14766;SDS011;7475;53.558;9.970;2022-09-28T06:36:06;23.13;;;18.73;;
14766;SDS011;7475;53.558;9.970;2022-09-28T06:38:31;23.35;;;17.70;;
14766;SDS011;7475;53.558;9.970;2022-09-28T06:40:57;19.80;;;17.05;;
14766;SDS011;7475;53.558;9.970;2022-09-28T06:43:22;20.98;;;17.20;;
14766;SDS011;7475;53.558;9.970;2022-09-28T06:45:51;20.35;;;16.20;;
14766;SDS011;7475;53.558;9.970;2022-09-28T06:48:16;21.35;;;17.45;;
14766;SDS011;7475;53.558;9.970;2022-09-28T06:50:42;26.85;;;18.35;;
14766;SDS011;7475;53.558;9.970;2022-09-28T06:53:09;21.88;;;17.33;;
14766;SDS011;7475;53.558;9.970;2022-09-28T06:55:37;25.63;;;18.08;;
14766;SDS011;7475;53.558;9.970;2022-09-28T06:58:03;19.45;;;16.45;;
14766;SDS011;7475;53.558;9.970;2022-09-28T07:00:30;20.08;;;16.48;;
14766;SDS011;7475;53.558;9.970;2022-09-28T07:02:57;23.77;;;18.25;;
14766;SDS011;7475;53.558;9.970;2022-09-28T07:05:23;23.52;;;18.55;;
14766;SDS011;7475;53.558;9.970;2022-09-28T07:07:55;25.83;;;17.77;;
14766;SDS011;7475;53.558;9.970;2022-09-28T07:10:21;27.10;;;17.88;;
14766;SDS011;7475;53.558;9.970;2022-09-28T07:12:54;26.10;;;18.42;;
14766;SDS011;7475;53.558;9.970;2022-09-28T07:15:32;24.73;;;17.70;;
14766;SDS011;7475;53.558;9.970;2022-09-28T07:17:58;25.63;;;18.35;;
14766;SDS011;7475;53.558;9.970;2022-09-28T07:20:23;27.92;;;19.70;;
14766;SDS011;7475;53.558;9.970;2022-09-28T07:22:55;26.75;;;19.20;;
14766;SDS011;7475;53.558;9.970;2022-09-28T07:25:21;29.75;;;19.65;;
14766;SDS011;7475;53.558;9.970;2022-09-28T07:27:47;24.45;;;19.35;;
14766;SDS011;7475;53.558;9.970;2022-09-28T07:30:12;26.20;;;19.30;;
14766;SDS011;7475;53.558;9.970;2022-09-28T07:32:38;25.05;;;20.10;;
14766;SDS011;7475;53.558;9.970;2022-09-28T07:35:04;23.88;;;17.30;;
14766;SDS011;7475;53.558;9.970;2022-09-28T07:37:32;25.17;;;18.20;;
14766;SDS011;7475;53.558;9.970;2022-09-28T07:39:57;23.35;;;17.95;;
14766;SDS011;7475;53.558;9.970;2022-09-28T07:42:41;24.20;;;17.92;;
14766;SDS011;7475;53.558;9.970;2022-09-28T07:45:06;27.48;;;19.08;;
14766;SDS011;7475;53.558;9.970;2022-09-28T07:47:31;27.35;;;19.70;;
14766;SDS011;7475;53.558;9.970;2022-09-28T07:49:57;27.58;;;19.15;;
14766;SDS011;7475;53.558;9.970;2022-09-28T07:52:22;27.23;;;17.92;;
14766;SDS011;7475;53.558;9.970;2022-09-28T07:54:50;26.20;;;18.27;;
14766;SDS011;7475;53.558;9.970;2022-09-28T07:57:17;24.88;;;17.58;;
14766;SDS011;7475;53.558;9.970;2022-09-28T07:59:43;24.73;;;16.88;;
14766;SDS011;7475;53.558;9.970;2022-09-28T08:02:09;25.67;;;17.80;;
14766;SDS011;7475;53.558;9.970;2022-09-28T08:04:34;22.05;;;16.60;;
14766;SDS011;7475;53.558;9.970;2022-09-28T08:06:59;23.83;;;17.63;;
14766;SDS011;7475;53.558;9.970;2022-09-28T08:09:27;24.40;;;17.50;;
14766;SDS011;7475;53.558;9.970;2022-09-28T08:11:52;22.90;;;17.10;;
14766;SDS011;7475;53.558;9.970;2022-09-28T08:14:18;21.73;;;15.77;;
14766;SDS011;7475;53.558;9.970;2022-09-28T08:16:43;19.73;;;16.10;;
14766;SDS011;7475;53.558;9.970;2022-09-28T08:19:09;20.92;;;15.98;;
14766;SDS011;7475;53.558;9.970;2022-09-28T08:21:34;22.85;;;16.65;;
14766;SDS011;7475;53.558;9.970;2022-09-28T08:24:09;22.83;;;17.60;;
14766;SDS011;7475;53.558;9.970;2022-09-28T08:26:34;25.08;;;16.45;;
14766;SDS011;7475;53.558;9.970;2022-09-28T08:29:00;24.23;;;17.83;;
14766;SDS011;7475;53.558;9.970;2022-09-28T08:31:25;21.75;;;16.45;;
14766;SDS011;7475;53.558;9.970;2022-09-28T08:33:50;21.30;;;16.25;;
14766;SDS011;7475;53.558;9.970;2022-09-28T08:36:17;22.30;;;17.05;;
14766;SDS011;7475;53.558;9.970;2022-09-28T08:38:43;21.05;;;16.95;;
14766;SDS011;7475;53.558;9.970;2022-09-28T08:46:32;22.40;;;16.50;;
14766;SDS011;7475;53.558;9.970;2022-09-28T08:49:09;24.17;;;17.30;;
14766;SDS011;7475;53.558;9.970;2022-09-28T08:56:51;22.02;;;16.55;;
14766;SDS011;7475;53.558;9.970;2022-09-28T08:59:19;20.17;;;15.75;;
14766;SDS011;7475;53.558;9.970;2022-09-28T09:01:46;22.38;;;17.30;;
14766;SDS011;7475;53.558;9.970;2022-09-28T09:04:12;20.50;;;15.77;;
14766;SDS011;7475;53.558;9.970;2022-09-28T09:14:53;22.23;;;13.88;;
14766;SDS011;7475;53.558;9.970;2022-09-28T09:19:53;17.35;;;14.50;;
14766;SDS011;7475;53.558;9.970;2022-09-28T09:24:50;18.98;;;14.43;;
14766;SDS011;7475;53.558;9.970;2022-09-28T09:37:20;18.05;;;15.73;;
14766;SDS011;7475;53.558;9.970;2022-09-28T09:47:38;17.42;;;15.30;;
14766;SDS011;7475;53.558;9.970;2022-09-28T09:50:10;20.83;;;16.48;;
14766;SDS011;7475;53.558;9.970;2022-09-28T09:57:41;20.17;;;16.90;;
14766;SDS011;7475;53.558;9.970;2022-09-28T10:00:11;18.75;;;15.80;;
14766;SDS011;7475;53.558;9.970;2022-09-28T10:02:37;20.85;;;16.52;;
14766;SDS011;7475;53.558;9.970;2022-09-28T10:05:13;25.70;;;19.27;;
14766;SDS011;7475;53.558;9.970;2022-09-28T10:10:16;17.90;;;16.00;;
14766;SDS011;7475;53.558;9.970;2022-09-28T10:12:43;19.65;;;15.35;;
14766;SDS011;7475;53.558;9.970;2022-09-28T10:15:12;17.15;;;14.38;;
14766;SDS011;7475;53.558;9.970;2022-09-28T10:17:39;17.88;;;14.18;;
14766;SDS011;7475;53.558;9.970;2022-09-28T10:20:04;15.95;;;14.20;;
14766;SDS011;7475;53.558;9.970;2022-09-28T10:22:30;17.58;;;14.05;;
14766;SDS011;7475;53.558;9.970;2022-09-28T10:24:56;16.27;;;14.00;;
14766;SDS011;7475;53.558;9.970;2022-09-28T10:27:24;17.95;;;14.30;;
14766;SDS011;7475;53.558;9.970;2022-09-28T10:30:11;17.45;;;15.05;;
14766;SDS011;7475;53.558;9.970;2022-09-28T10:32:39;16.30;;;14.63;;
14766;SDS011;7475;53.558;9.970;2022-09-28T10:35:12;18.55;;;14.45;;
14766;SDS011;7475;53.558;9.970;2022-09-28T10:37:46;13.75;;;12.45;;
14766;SDS011;7475;53.558;9.970;2022-09-28T10:40:24;12.93;;;11.73;;
14766;SDS011;7475;53.558;9.970;2022-09-28T10:43:01;10.48;;;8.30;;
14766;SDS011;7475;53.558;9.970;2022-09-28T10:45:26;9.20;;;7.63;;
14766;SDS011;7475;53.558;9.970;2022-09-28T10:47:55;9.15;;;8.23;;
14766;SDS011;7475;53.558;9.970;2022-09-28T10:50:23;9.73;;;8.57;;
14766;SDS011;7475;53.558;9.970;2022-09-28T10:52:49;8.63;;;7.50;;
14766;SDS011;7475;53.558;9.970;2022-09-28T10:57:45;7.95;;;7.25;;
14766;SDS011;7475;53.558;9.970;2022-09-28T11:02:54;8.95;;;7.53;;
14766;SDS011;7475;53.558;9.970;2022-09-28T11:05:20;6.57;;;5.95;;
14766;SDS011;7475;53.558;9.970;2022-09-28T11:07:46;6.80;;;5.47;;
14766;SDS011;7475;53.558;9.970;2022-09-28T11:10:17;6.88;;;5.95;;
14766;SDS011;7475;53.558;9.970;2022-09-28T11:12:43;6.43;;;4.35;;
14766;SDS011;7475;53.558;9.970;2022-09-28T11:15:10;4.53;;;4.03;;
14766;SDS011;7475;53.558;9.970;2022-09-28T11:17:40;4.60;;;4.20;;
14766;SDS011;7475;53.558;9.970;2022-09-28T11:22:48;4.43;;;3.72;;
14766;SDS011;7475;53.558;9.970;2022-09-28T11:30:21;4.65;;;3.03;;
14766;SDS011;7475;53.558;9.970;2022-09-28T11:32:47;4.32;;;3.92;;
14766;SDS011;7475;53.558;9.970;2022-09-28T11:35:19;6.25;;;3.80;;
14766;SDS011;7475;53.558;9.970;2022-09-28T11:37:53;4.13;;;3.75;;
14766;SDS011;7475;53.558;9.970;2022-09-28T11:43:12;5.55;;;3.22;;
14766;SDS011;7475;53.558;9.970;2022-09-28T11:48:21;5.72;;;2.97;;
14766;SDS011;7475;53.558;9.970;2022-09-28T11:50:48;4.40;;;2.75;;
14766;SDS011;7475;53.558;9.970;2022-09-28T11:53:35;5.95;;;2.85;;
14766;SDS011;7475;53.558;9.970;2022-09-28T11:58:47;3.50;;;3.17;;
14766;SDS011;7475;53.558;9.970;2022-09-28T12:04:15;7.78;;;7.03;;
14766;SDS011;7475;53.558;9.970;2022-09-28T12:09:47;3.58;;;2.50;;
14766;SDS011;7475;53.558;9.970;2022-09-28T12:12:18;3.75;;;2.28;;
14766;SDS011;7475;53.558;9.970;2022-09-28T12:14:46;5.13;;;2.63;;
14766;SDS011;7475;53.558;9.970;2022-09-28T12:17:19;3.58;;;2.40;;
14766;SDS011;7475;53.558;9.970;2022-09-28T12:22:24;6.63;;;2.83;;
14766;SDS011;7475;53.558;9.970;2022-09-28T12:24:51;5.55;;;2.38;;
14766;SDS011;7475;53.558;9.970;2022-09-28T12:27:39;3.17;;;2.58;;
14766;SDS011;7475;53.558;9.970;2022-09-28T12:30:15;4.65;;;3.03;;
14766;SDS011;7475;53.558;9.970;2022-09-28T12:32:45;3.08;;;2.47;;
14766;SDS011;7475;53.558;9.970;2022-09-28T12:37:59;4.45;;;2.80;;
14766;SDS011;7475;53.558;9.970;2022-09-28T12:43:14;3.40;;;2.78;;
14766;SDS011;7475;53.558;9.970;2022-09-28T12:50:44;3.92;;;2.67;;
14766;SDS011;7475;53.558;9.970;2022-09-28T12:58:27;2.90;;;2.10;;
14766;SDS011;7475;53.558;9.970;2022-09-28T13:03:52;2.42;;;2.10;;
14766;SDS011;7475;53.558;9.970;2022-09-28T13:24:20;4.32;;;3.20;;
14766;SDS011;7475;53.558;9.970;2022-09-28T13:26:49;5.97;;;2.60;;
14766;SDS011;7475;53.558;9.970;2022-09-28T13:29:15;3.65;;;3.17;;
14766;SDS011;7475;53.558;9.970;2022-09-28T13:31:45;3.15;;;2.00;;
14766;SDS011;7475;53.558;9.970;2022-09-28T13:34:13;3.60;;;2.15;;
14766;SDS011;7475;53.558;9.970;2022-09-28T13:37:06;3.55;;;1.80;;
14766;SDS011;7475;53.558;9.970;2022-09-28T13:39:35;2.75;;;2.30;;
14766;SDS011;7475;53.558;9.970;2022-09-28T13:42:01;4.72;;;1.80;;
14766;SDS011;7475;53.558;9.970;2022-09-28T13:44:43;2.45;;;1.85;;
14766;SDS011;7475;53.558;9.970;2022-09-28T14:00:54;3.17;;;1.80;;
14766;SDS011;7475;53.558;9.970;2022-09-28T14:08:33;2.72;;;1.60;;
14766;SDS011;7475;53.558;9.970;2022-09-28T14:14:04;6.28;;;1.92;;
14766;SDS011;7475;53.558;9.970;2022-09-28T14:16:30;2.88;;;1.80;;
14766;SDS011;7475;53.558;9.970;2022-09-28T14:19:06;2.30;;;1.80;;
14766;SDS011;7475;53.558;9.970;2022-09-28T14:29:37;2.17;;;1.90;;
14766;SDS011;7475;53.558;9.970;2022-09-28T14:34:41;3.72;;;2.17;;
14766;SDS011;7475;53.558;9.970;2022-09-28T14:37:20;4.13;;;2.03;;
14766;SDS011;7475;53.558;9.970;2022-09-28T14:40:14;3.40;;;2.00;;
14766;SDS011;7475;53.558;9.970;2022-09-28T14:45:47;4.88;;;2.70;;
14766;SDS011;7475;53.558;9.970;2022-09-28T14:48:13;4.20;;;2.97;;
14766;SDS011;7475;53.558;9.970;2022-09-28T14:50:39;3.17;;;2.70;;
14766;SDS011;7475;53.558;9.970;2022-09-28T14:53:08;3.63;;;2.83;;
14766;SDS011;7475;53.558;9.970;2022-09-28T14:55:39;2.75;;;1.92;;
14766;SDS011;7475;53.558;9.970;2022-09-28T14:58:07;4.40;;;2.20;;
14766;SDS011;7475;53.558;9.970;2022-09-28T15:00:40;12.05;;;9.52;;
14766;SDS011;7475;53.558;9.970;2022-09-28T15:03:08;7.78;;;2.10;;
14766;SDS011;7475;53.558;9.970;2022-09-28T15:05:37;2.05;;;1.70;;
14766;SDS011;7475;53.558;9.970;2022-09-28T15:08:05;3.30;;;1.70;;
14766;SDS011;7475;53.558;9.970;2022-09-28T15:10:32;4.32;;;1.98;;
14766;SDS011;7475;53.558;9.970;2022-09-28T15:13:14;2.53;;;1.95;;
14766;SDS011;7475;53.558;9.970;2022-09-28T15:15:41;2.53;;;1.58;;
14766;SDS011;7475;53.558;9.970;2022-09-28T15:20:52;2.85;;;1.95;;
14766;SDS011;7475;53.558;9.970;2022-09-28T15:25:53;3.47;;;1.88;;
14766;SDS011;7475;53.558;9.970;2022-09-28T15:28:19;2.25;;;1.60;;
14766;SDS011;7475;53.558;9.970;2022-09-28T15:30:47;4.32;;;1.98;;
14766;SDS011;7475;53.558;9.970;2022-09-28T15:33:21;6.20;;;5.05;;
14766;SDS011;7475;53.558;9.970;2022-09-28T15:36:06;3.85;;;2.03;;
14766;SDS011;7475;53.558;9.970;2022-09-28T15:38:32;3.65;;;3.03;;
14766;SDS011;7475;53.558;9.970;2022-09-28T15:41:01;2.47;;;2.00;;
14766;SDS011;7475;53.558;9.970;2022-09-28T15:43:29;5.63;;;2.33;;
14766;SDS011;7475;53.558;9.970;2022-09-28T15:45:58;5.30;;;4.03;;
14766;SDS011;7475;53.558;9.970;2022-09-28T15:51:05;5.80;;;5.20;;
14766;SDS011;7475;53.558;9.970;2022-09-28T15:53:34;3.88;;;3.20;;
14766;SDS011;7475;53.558;9.970;2022-09-28T15:56:01;3.58;;;2.67;;
14766;SDS011;7475;53.558;9.970;2022-09-28T15:58:29;4.18;;;3.05;;
14766;SDS011;7475;53.558;9.970;2022-09-28T16:03:38;75.25;;;52.05;;
14766;SDS011;7475;53.558;9.970;2022-09-28T16:06:04;6.87;;;4.20;;
14766;SDS011;7475;53.558;9.970;2022-09-28T16:08:40;4.38;;;3.80;;
14766;SDS011;7475;53.558;9.970;2022-09-28T16:11:08;5.47;;;3.42;;
14766;SDS011;7475;53.558;9.970;2022-09-28T16:13:35;5.68;;;3.55;;
14766;SDS011;7475;53.558;9.970;2022-09-28T16:16:01;3.50;;;3.20;;
14766;SDS011;7475;53.558;9.970;2022-09-28T16:18:27;4.35;;;3.60;;
14766;SDS011;7475;53.558;9.970;2022-09-28T16:20:53;9.25;;;6.18;;
14766;SDS011;7475;53.558;9.970;2022-09-28T16:23:30;8.27;;;5.00;;
14766;SDS011;7475;53.558;9.970;2022-09-28T16:26:00;9.00;;;4.88;;
14766;SDS011;7475;53.558;9.970;2022-09-28T16:33:39;6.20;;;4.45;;
14766;SDS011;7475;53.558;9.970;2022-09-28T16:36:09;6.88;;;4.90;;
14766;SDS011;7475;53.558;9.970;2022-09-28T16:38:36;8.30;;;5.50;;
14766;SDS011;7475;53.558;9.970;2022-09-28T16:41:02;7.72;;;4.80;;
14766;SDS011;7475;53.558;9.970;2022-09-28T16:43:29;9.88;;;6.40;;
14766;SDS011;7475;53.558;9.970;2022-09-28T16:45:58;7.63;;;5.20;;
14766;SDS011;7475;53.558;9.970;2022-09-28T16:48:25;8.32;;;6.65;;
14766;SDS011;7475;53.558;9.970;2022-09-28T16:50:51;8.50;;;6.80;;
14766;SDS011;7475;53.558;9.970;2022-09-28T16:53:16;6.22;;;5.63;;
14766;SDS011;7475;53.558;9.970;2022-09-28T16:56:00;6.65;;;5.95;;
14766;SDS011;7475;53.558;9.970;2022-09-28T16:58:26;11.32;;;7.72;;
14766;SDS011;7475;53.558;9.970;2022-09-28T17:00:52;12.25;;;8.93;;
14766;SDS011;7475;53.558;9.970;2022-09-28T17:03:18;8.27;;;7.45;;
14766;SDS011;7475;53.558;9.970;2022-09-28T17:05:44;8.88;;;6.88;;
14766;SDS011;7475;53.558;9.970;2022-09-28T17:08:13;8.88;;;7.97;;
14766;SDS011;7475;53.558;9.970;2022-09-28T17:10:42;10.73;;;8.45;;
14766;SDS011;7475;53.558;9.970;2022-09-28T17:13:30;9.52;;;8.32;;
14766;SDS011;7475;53.558;9.970;2022-09-28T17:15:57;10.77;;;8.70;;
14766;SDS011;7475;53.558;9.970;2022-09-28T17:18:22;10.98;;;9.45;;
14766;SDS011;7475;53.558;9.970;2022-09-28T17:20:48;12.23;;;8.90;;
14766;SDS011;7475;53.558;9.970;2022-09-28T17:23:14;11.02;;;9.13;;
14766;SDS011;7475;53.558;9.970;2022-09-28T17:25:40;11.95;;;9.52;;
14766;SDS011;7475;53.558;9.970;2022-09-28T17:28:05;10.75;;;9.63;;
14766;SDS011;7475;53.558;9.970;2022-09-28T17:30:37;13.35;;;10.60;;
14766;SDS011;7475;53.558;9.970;2022-09-28T17:33:02;11.73;;;10.52;;
14766;SDS011;7475;53.558;9.970;2022-09-28T17:35:28;12.57;;;11.23;;
14766;SDS011;7475;53.558;9.970;2022-09-28T17:37:53;13.27;;;11.88;;
14766;SDS011;7475;53.558;9.970;2022-09-28T17:40:19;15.90;;;12.85;;
14766;SDS011;7475;53.558;9.970;2022-09-28T17:42:45;13.75;;;11.35;;
14766;SDS011;7475;53.558;9.970;2022-09-28T17:45:11;12.38;;;11.07;;
14766;SDS011;7475;53.558;9.970;2022-09-28T17:47:37;13.63;;;11.73;;
14766;SDS011;7475;53.558;9.970;2022-09-28T17:50:07;15.52;;;11.98;;
14766;SDS011;7475;53.558;9.970;2022-09-28T17:52:36;15.23;;;12.02;;
14766;SDS011;7475;53.558;9.970;2022-09-28T17:55:01;15.05;;;11.68;;
14766;SDS011;7475;53.558;9.970;2022-09-28T17:57:26;16.40;;;12.60;;
14766;SDS011;7475;53.558;9.970;2022-09-28T17:59:51;14.18;;;11.98;;
14766;SDS011;7475;53.558;9.970;2022-09-28T18:02:17;18.30;;;14.23;;
14766;SDS011;7475;53.558;9.970;2022-09-28T18:04:42;14.27;;;12.85;;
14766;SDS011;7475;53.558;9.970;2022-09-28T18:07:07;15.35;;;12.40;;
14766;SDS011;7475;53.558;9.970;2022-09-28T18:09:32;13.55;;;12.15;;
14766;SDS011;7475;53.558;9.970;2022-09-28T18:11:58;14.73;;;13.23;;